Time;durP1;ratioP1;P1;durP2;ratioP2;P2;SDS_P1;SDS_P2;PMS_P1;PMS_P2;Temp;Humidity;BMP_temperature;BMP_pressure;BME280_temperature;BME280_humidity;BME280_pressure;Samples;Min_cycle;Max_cycle;Signal;HPM_P1;HPM_P2
2023/05/13 00:20:00;;;;;;;1.70;0.60;;;15.60;96.70;;;;;;4934391;28;20067;-71
2023/05/13 00:22:32;;;;;;;1.38;0.82;;;15.70;96.70;;;;;;4931128;28;20069;-71
2023/05/13 00:25:01;;;;;;;3.20;0.90;;;15.60;96.70;;;;;;4963535;28;20043;-71
2023/05/13 00:27:34;;;;;;;1.95;0.80;;;15.50;96.70;;;;;;4930684;28;20598;-71
2023/05/13 00:30:04;;;;;;;3.72;1.10;;;15.50;96.70;;;;;;4965913;28;20054;-71
2023/05/13 00:32:34;;;;;;;3.40;0.85;;;15.50;96.70;;;;;;4940585;28;20525;-72
2023/05/13 00:35:06;;;;;;;1.42;0.60;;;15.50;96.70;;;;;;4973840;28;20117;-72
2023/05/13 00:37:36;;;;;;;3.38;1.02;;;15.40;96.70;;;;;;4959667;28;20094;-72
2023/05/13 00:40:20;;;;;;;5.32;1.63;;;15.40;96.70;;;;;;4979615;28;20070;-72
2023/05/13 00:42:54;;;;;;;2.38;0.93;;;15.20;96.70;;;;;;4926823;28;20074;-72
2023/05/13 00:45:23;;;;;;;2.35;1.13;;;15.30;96.70;;;;;;4972288;28;20474;-72
2023/05/13 00:47:52;;;;;;;2.17;0.70;;;15.40;96.70;;;;;;4959551;28;20374;-72
2023/05/13 00:50:24;;;;;;;3.70;1.10;;;15.40;96.70;;;;;;4957292;28;20049;-73
2023/05/13 00:52:56;;;;;;;2.55;1.00;;;15.50;96.70;;;;;;4947349;28;20062;-73
2023/05/13 00:55:26;;;;;;;3.38;0.70;;;15.50;96.70;;;;;;4973602;28;20046;-73
2023/05/13 00:57:55;;;;;;;4.70;0.65;;;15.50;96.70;;;;;;4966541;28;20047;-72
2023/05/13 01:00:24;;;;;;;1.08;0.60;;;15.50;96.70;;;;;;4973047;28;20098;-72
2023/05/13 01:03:02;;;;;;;1.52;0.70;;;15.50;96.70;;;;;;4934616;28;20571;-72
2023/05/13 01:05:39;;;;;;;3.00;1.08;;;15.50;96.70;;;;;;4970176;28;20046;-72
2023/05/13 01:08:23;;;;;;;4.65;0.82;;;15.40;96.70;;;;;;4976346;28;20408;-72
2023/05/13 01:10:57;;;;;;;2.00;0.60;;;15.40;96.70;;;;;;4978485;28;20063;-73
2023/05/13 01:13:30;;;;;;;1.55;0.80;;;15.50;96.70;;;;;;4970162;28;20050;-72
2023/05/13 01:16:05;;;;;;;3.00;0.60;;;15.50;96.70;;;;;;4944493;28;20133;-72
2023/05/13 01:18:39;;;;;;;1.95;0.80;;;15.50;96.70;;;;;;4973270;28;20054;-72
2023/05/13 01:21:14;;;;;;;3.83;0.55;;;15.40;96.70;;;;;;4967054;28;20444;-72
2023/05/13 01:23:46;;;;;;;2.70;0.43;;;15.30;96.70;;;;;;4969405;28;20046;-72
2023/05/13 01:26:16;;;;;;;3.45;0.60;;;15.30;96.70;;;;;;4912297;28;20463;-72
2023/05/13 01:28:47;;;;;;;3.08;0.70;;;15.30;96.70;;;;;;4944982;28;20106;-72
2023/05/13 01:31:20;;;;;;;2.65;0.80;;;15.30;96.70;;;;;;4927592;28;20398;-72
2023/05/13 01:33:50;;;;;;;2.60;0.82;;;15.30;96.70;;;;;;4921113;28;20055;-72
2023/05/13 01:36:21;;;;;;;4.70;1.63;;;15.40;96.70;;;;;;4906683;29;20052;-72
2023/05/13 01:38:53;;;;;;;1.80;0.65;;;15.30;96.70;;;;;;4891223;29;20048;-72
2023/05/13 01:41:22;;;;;;;5.55;0.93;;;15.20;96.70;;;;;;4906092;29;20143;-72
2023/05/13 01:43:51;;;;;;;2.65;0.65;;;15.20;96.70;;;;;;4906114;29;20051;-72
2023/05/13 01:46:23;;;;;;;3.03;0.68;;;15.30;96.70;;;;;;4920016;29;20091;-72
2023/05/13 01:48:55;;;;;;;1.92;0.60;;;15.40;96.70;;;;;;4917606;29;20052;-72
2023/05/13 01:51:24;;;;;;;2.55;0.63;;;15.40;96.70;;;;;;4906849;29;20107;-72
2023/05/13 01:53:53;;;;;;;2.83;0.93;;;15.40;96.70;;;;;;4906267;29;20079;-72
2023/05/13 01:56:23;;;;;;;1.48;0.45;;;15.40;96.70;;;;;;4890728;29;20056;-73
2023/05/13 01:59:31;;;;;;;2.30;0.70;;;15.50;96.70;;;;;;4883906;29;20048;-72
2023/05/13 02:02:00;;;;;;;1.05;0.50;;;15.50;96.70;;;;;;4922992;29;20448;-72
2023/05/13 02:04:31;;;;;;;0.98;0.25;;;15.40;96.70;;;;;;4903653;29;20151;-72
2023/05/13 02:07:01;;;;;;;1.98;1.00;;;15.40;96.70;;;;;;4942327;28;20054;-72
2023/05/13 02:09:36;;;;;;;3.92;0.82;;;15.20;96.70;;;;;;4955301;28;20149;-73
2023/05/13 02:12:07;;;;;;;2.20;0.70;;;15.30;96.70;;;;;;4937660;28;20397;-72
2023/05/13 02:14:37;;;;;;;1.90;0.50;;;15.30;96.70;;;;;;4949388;28;20062;-72
2023/05/13 02:17:08;;;;;;;1.63;0.60;;;15.30;96.70;;;;;;4919549;28;20057;-73
2023/05/13 02:19:41;;;;;;;1.63;0.50;;;15.30;96.70;;;;;;4956384;28;20135;-72
2023/05/13 02:22:11;;;;;;;1.20;0.40;;;15.30;96.70;;;;;;4949177;28;20106;-73
2023/05/13 02:24:41;;;;;;;2.00;0.80;;;15.20;96.70;;;;;;4934073;28;20046;-72
2023/05/13 02:27:14;;;;;;;2.28;0.60;;;15.20;96.70;;;;;;4943524;28;20166;-73
2023/05/13 02:29:44;;;;;;;1.80;0.40;;;15.10;96.70;;;;;;4927396;29;20127;-72
2023/05/13 02:32:14;;;;;;;3.28;0.60;;;15.20;96.70;;;;;;4923528;29;20056;-72
2023/05/13 02:34:44;;;;;;;2.65;0.50;;;15.20;96.70;;;;;;4907739;29;20059;-72
2023/05/13 02:37:17;;;;;;;2.05;0.70;;;15.20;96.70;;;;;;4908383;29;20083;-72
2023/05/13 02:39:57;;;;;;;4.32;0.55;;;15.30;96.70;;;;;;4906804;29;20689;-73
2023/05/13 02:42:26;;;;;;;2.58;0.65;;;15.30;96.70;;;;;;4919789;29;20172;-72
2023/05/13 02:44:57;;;;;;;4.45;1.02;;;15.20;96.70;;;;;;4923161;29;20055;-72
2023/05/13 02:47:29;;;;;;;1.58;0.70;;;15.30;96.70;;;;;;4915922;29;20052;-72
2023/05/13 02:50:06;;;;;;;1.77;0.50;;;15.30;96.70;;;;;;4913902;29;20208;-72
2023/05/13 02:52:38;;;;;;;3.17;0.60;;;15.40;96.70;;;;;;4922775;29;20135;-72
2023/05/13 02:55:10;;;;;;;1.45;0.47;;;15.20;96.70;;;;;;4923013;29;20047;-72
2023/05/13 02:57:40;;;;;;;1.70;0.80;;;15.10;96.70;;;;;;4923346;29;20119;-72
2023/05/13 03:00:11;;;;;;;1.83;0.47;;;15.00;96.70;;;;;;4907157;29;20063;-72
2023/05/13 03:02:42;;;;;;;1.05;0.60;;;15.10;96.70;;;;;;4924157;29;20055;-72
2023/05/13 03:05:12;;;;;;;3.05;0.60;;;15.20;96.70;;;;;;4940380;28;20394;-71
2023/05/13 03:07:43;;;;;;;3.90;0.60;;;15.10;96.70;;;;;;4929917;29;20050;-72
2023/05/13 03:10:17;;;;;;;2.83;0.50;;;15.20;96.70;;;;;;4928950;29;20166;-72
2023/05/13 03:12:47;;;;;;;2.28;0.50;;;15.20;96.70;;;;;;4924417;29;20103;-72
2023/05/13 03:15:18;;;;;;;0.90;0.40;;;15.20;96.70;;;;;;4926302;29;20071;-72
2023/05/13 03:17:47;;;;;;;3.28;0.93;;;15.20;96.70;;;;;;4949079;28;20090;-71
2023/05/13 03:20:19;;;;;;;2.28;1.17;;;15.20;96.70;;;;;;4873782;28;2075264;-72
2023/05/13 03:22:49;;;;;;;2.75;1.23;;;15.10;96.70;;;;;;4944605;28;20154;-72
2023/05/13 03:25:20;;;;;;;3.25;0.70;;;15.10;96.70;;;;;;4949324;28;20071;-72
2023/05/13 03:27:57;;;;;;;4.13;0.90;;;15.10;96.70;;;;;;4947181;28;20043;-72
2023/05/13 03:30:31;;;;;;;4.93;0.90;;;15.20;96.70;;;;;;4946408;28;20595;-71
2023/05/13 03:36:42;;;;;;;2.83;0.73;;;15.20;96.70;;;;;;4951511;28;20479;-72
2023/05/13 03:39:15;;;;;;;1.30;0.65;;;15.00;96.70;;;;;;4960177;28;20074;-71
2023/05/13 03:41:47;;;;;;;2.72;0.60;;;15.10;96.70;;;;;;4961692;28;20050;-71
2023/05/13 03:44:17;;;;;;;3.00;0.82;;;15.20;96.70;;;;;;4941720;28;20054;-72
2023/05/13 03:55:10;;;;;;;4.20;1.08;;;15.00;96.70;;;;;;4943117;28;20151;-72
2023/05/13 03:57:46;;;;;;;2.15;0.90;;;15.10;96.70;;;;;;4944560;28;20106;-71
2023/05/13 04:00:18;;;;;;;5.60;1.20;;;15.10;96.70;;;;;;4928804;29;20642;-72
2023/05/13 04:02:49;;;;;;;2.45;1.20;;;15.20;96.70;;;;;;4944781;28;20043;-72
2023/05/13 04:09:32;;;;;;;1.67;0.90;;;15.20;96.70;;;;;;4943200;28;20196;-72
2023/05/13 04:12:02;;;;;;;2.92;0.95;;;15.20;96.70;;;;;;4945050;28;20054;-71
2023/05/13 04:14:32;;;;;;;2.85;1.25;;;15.20;96.70;;;;;;4929399;28;20047;-72
2023/05/13 04:17:00;;;;;;;3.25;1.55;;;15.20;96.70;;;;;;4953860;28;20043;-71
2023/05/13 04:20:04;;;;;;;1.58;1.08;;;15.30;96.70;;;;;;4968366;28;20835;-73
2023/05/13 04:22:35;;;;;;;3.88;1.35;;;15.30;96.70;;;;;;4943450;29;20086;-71
2023/05/13 04:25:05;;;;;;;2.35;1.10;;;15.20;96.70;;;;;;4937099;29;20051;-71
2023/05/13 04:31:44;;;;;;;4.53;1.17;;;15.00;96.70;;;;;;4943180;28;20223;-71
2023/05/13 04:34:15;;;;;;;2.30;1.10;;;15.00;96.70;;;;;;4910244;29;20178;-71
2023/05/13 04:36:51;;;;;;;3.13;1.27;;;15.00;96.70;;;;;;4897335;29;20055;-72
2023/05/13 04:39:20;;;;;;;2.70;1.27;;;15.00;96.70;;;;;;4939874;29;20055;-72
2023/05/13 04:41:52;;;;;;;4.32;1.55;;;15.00;96.70;;;;;;4925321;29;20050;-71
2023/05/13 04:44:22;;;;;;;2.50;1.15;;;15.00;96.70;;;;;;4901787;29;20059;-71
2023/05/13 04:46:54;;;;;;;2.00;1.20;;;15.00;96.70;;;;;;4909368;29;20162;-72
2023/05/13 04:49:24;;;;;;;4.78;1.52;;;15.00;96.70;;;;;;4941147;29;20133;-71
2023/05/13 04:51:55;;;;;;;4.57;1.50;;;15.00;96.70;;;;;;4942097;29;20112;-71
2023/05/13 04:54:26;;;;;;;2.72;1.58;;;15.10;96.70;;;;;;4908784;29;20051;-72
2023/05/13 04:57:00;;;;;;;1.90;1.25;;;15.20;96.70;;;;;;4903297;29;20048;-71
2023/05/13 04:59:38;;;;;;;1.50;0.90;;;15.20;96.70;;;;;;4888100;29;20541;-72
2023/05/13 05:02:10;;;;;;;3.75;1.13;;;15.30;96.70;;;;;;4885616;29;20183;-72
2023/05/13 05:04:39;;;;;;;1.38;0.88;;;15.30;96.70;;;;;;4886735;29;20079;-71
2023/05/13 05:07:12;;;;;;;4.18;0.98;;;15.30;96.70;;;;;;4887354;29;20428;-71
2023/05/13 05:09:41;;;;;;;3.78;1.20;;;15.30;96.70;;;;;;4886754;29;20056;-72
2023/05/13 05:12:10;;;;;;;3.58;1.10;;;15.20;96.70;;;;;;4883851;29;20062;-73
2023/05/13 05:14:40;;;;;;;3.15;1.17;;;15.20;96.70;;;;;;4906585;29;20510;-71
2023/05/13 05:17:10;;;;;;;1.92;0.88;;;15.20;96.70;;;;;;4904541;29;20672;-71
2023/05/13 05:19:39;;;;;;;1.65;0.98;;;15.20;96.70;;;;;;4906760;29;20047;-73
2023/05/13 05:22:08;;;;;;;3.03;1.00;;;15.20;96.70;;;;;;4922619;29;20059;-72
2023/05/13 05:24:36;;;;;;;3.10;1.17;;;15.40;96.70;;;;;;4931337;28;20205;-72
2023/05/13 05:27:05;;;;;;;2.15;0.90;;;15.40;96.70;;;;;;4944613;28;20107;-72
2023/05/13 05:29:35;;;;;;;2.70;0.98;;;15.40;96.70;;;;;;4923029;28;20131;-71
2023/05/13 05:32:04;;;;;;;4.07;0.80;;;15.50;96.70;;;;;;4940618;28;20058;-73
2023/05/13 05:34:34;;;;;;;1.63;0.73;;;15.50;96.70;;;;;;4915563;28;20066;-72
2023/05/13 05:37:03;;;;;;;2.08;0.90;;;15.50;96.70;;;;;;4943890;28;20051;-72
2023/05/13 05:39:34;;;;;;;2.40;1.15;;;15.40;96.70;;;;;;4954849;28;20055;-72
2023/05/13 05:42:02;;;;;;;4.88;1.00;;;15.50;96.70;;;;;;4950105;28;20595;-72
2023/05/13 05:44:31;;;;;;;2.33;0.90;;;15.60;96.70;;;;;;4946404;28;20676;-72
2023/05/13 05:46:59;;;;;;;1.88;0.80;;;15.70;96.70;;;;;;4949273;28;20047;-72
2023/05/13 05:49:28;;;;;;;3.15;0.80;;;15.70;96.70;;;;;;4949072;28;20126;-72
2023/05/13 05:51:58;;;;;;;2.17;1.02;;;15.70;96.70;;;;;;4956034;28;20054;-72
2023/05/13 05:54:27;;;;;;;2.75;0.90;;;15.70;96.70;;;;;;4946781;28;20032;-72
2023/05/13 05:56:56;;;;;;;4.55;1.20;;;15.70;96.70;;;;;;4931226;28;20078;-73
2023/05/13 05:59:24;;;;;;;3.92;1.10;;;15.60;96.70;;;;;;4956805;28;20056;-72
2023/05/13 06:01:53;;;;;;;2.45;0.75;;;15.70;96.70;;;;;;4945953;28;20043;-72
2023/05/13 06:04:23;;;;;;;3.45;1.13;;;15.70;96.70;;;;;;4962097;28;20547;-71
2023/05/13 06:06:52;;;;;;;5.82;1.20;;;15.70;96.70;;;;;;4945507;28;20517;-72
2023/05/13 06:09:23;;;;;;;3.00;1.42;;;15.80;96.70;;;;;;4947044;28;20612;-71
2023/05/13 06:11:51;;;;;;;2.13;1.17;;;15.70;96.70;;;;;;4952235;28;20043;-73
2023/05/13 06:14:20;;;;;;;2.22;1.02;;;15.70;96.70;;;;;;4957388;28;20042;-73
2023/05/13 06:16:48;;;;;;;4.20;1.08;;;15.70;96.70;;;;;;4942565;28;20090;-73
2023/05/13 06:19:17;;;;;;;3.85;0.98;;;15.80;96.70;;;;;;4954796;28;20047;-72
2023/05/13 06:21:45;;;;;;;2.67;1.45;;;15.90;96.70;;;;;;4958842;28;20113;-73
2023/05/13 06:24:14;;;;;;;1.85;1.05;;;15.90;96.70;;;;;;4935546;28;20048;-72
2023/05/13 06:26:44;;;;;;;1.95;1.08;;;16.00;96.70;;;;;;4953143;28;20057;-72
2023/05/13 06:29:14;;;;;;;2.42;1.02;;;16.10;96.70;;;;;;4966939;28;20100;-71
2023/05/13 06:31:42;;;;;;;3.53;1.13;;;16.10;96.70;;;;;;4964140;28;20714;-73
2023/05/13 06:34:15;;;;;;;1.15;0.90;;;16.20;96.70;;;;;;4976069;28;20149;-74
2023/05/13 06:36:44;;;;;;;3.22;1.10;;;16.20;96.70;;;;;;4977272;28;20170;-73
2023/05/13 06:39:13;;;;;;;2.22;0.85;;;16.20;96.70;;;;;;4976928;28;20035;-73
2023/05/13 06:41:57;;;;;;;1.95;0.82;;;16.10;96.70;;;;;;4973627;28;20061;-72
2023/05/13 06:44:44;;;;;;;1.45;0.63;;;16.30;96.70;;;;;;4963296;28;20917;-72
2023/05/13 06:47:14;;;;;;;2.83;0.60;;;16.30;96.70;;;;;;4962667;28;20071;-73
2023/05/13 06:49:43;;;;;;;3.10;0.70;;;16.40;96.70;;;;;;4973049;28;20062;-73
2023/05/13 06:52:11;;;;;;;1.20;0.60;;;16.40;96.70;;;;;;4953597;28;20050;-73
2023/05/13 06:54:40;;;;;;;1.52;0.68;;;16.50;96.70;;;;;;4957807;28;20133;-74
2023/05/13 06:57:11;;;;;;;2.35;0.77;;;16.50;96.70;;;;;;4957566;28;20047;-73
2023/05/13 06:59:39;;;;;;;0.85;0.40;;;16.60;96.70;;;;;;4952348;28;20449;-74
2023/05/13 07:02:08;;;;;;;3.80;0.47;;;16.60;96.70;;;;;;4974092;28;20133;-73
2023/05/13 07:04:37;;;;;;;1.23;0.75;;;16.60;96.70;;;;;;4956973;28;20051;-72
2023/05/13 07:07:05;;;;;;;1.38;0.60;;;16.70;96.70;;;;;;4966143;28;20066;-73
2023/05/13 07:09:34;;;;;;;2.75;0.40;;;16.80;96.70;;;;;;4971272;28;21001;-73
2023/05/13 07:12:02;;;;;;;2.45;0.47;;;16.80;96.70;;;;;;4936469;28;20141;-73
2023/05/13 07:14:32;;;;;;;1.92;0.63;;;16.80;96.70;;;;;;4960651;28;20057;-72
2023/05/13 07:17:02;;;;;;;2.13;0.50;;;16.90;96.70;;;;;;4970938;28;20100;-73
2023/05/13 07:19:31;;;;;;;2.92;0.60;;;16.90;96.70;;;;;;4955280;28;20089;-73
2023/05/13 07:21:59;;;;;;;0.95;0.50;;;16.90;96.70;;;;;;4940129;28;20584;-74
2023/05/13 07:24:28;;;;;;;1.35;0.50;;;17.00;96.70;;;;;;4932525;28;20063;-73
2023/05/13 07:26:56;;;;;;;2.90;0.77;;;17.00;96.70;;;;;;4971414;28;20045;-73
2023/05/13 07:29:24;;;;;;;2.22;0.60;;;17.00;96.70;;;;;;4962603;28;20050;-73
2023/05/13 07:31:56;;;;;;;2.10;0.43;;;17.00;96.70;;;;;;4964565;28;20050;-73
2023/05/13 07:34:24;;;;;;;1.65;0.52;;;17.00;96.70;;;;;;4940434;28;20121;-73
2023/05/13 07:36:53;;;;;;;2.90;1.05;;;17.10;96.70;;;;;;4969123;28;20121;-73
2023/05/13 07:39:21;;;;;;;2.72;0.35;;;17.10;96.70;;;;;;4945904;28;20050;-73
2023/05/13 07:41:49;;;;;;;2.35;0.50;;;17.20;96.70;;;;;;4957772;28;20641;-73
2023/05/13 07:44:18;;;;;;;3.83;0.38;;;17.30;96.70;;;;;;4954044;28;20059;-73
2023/05/13 07:46:48;;;;;;;2.50;0.50;;;17.30;96.70;;;;;;4971802;28;20046;-73
2023/05/13 07:49:18;;;;;;;4.05;0.60;;;17.40;96.70;;;;;;4955300;28;20038;-73
2023/05/13 07:51:47;;;;;;;1.60;0.52;;;17.50;96.70;;;;;;4956304;28;20043;-73
2023/05/13 07:54:16;;;;;;;3.03;0.57;;;17.60;96.70;;;;;;4965314;28;20042;-73
2023/05/13 07:56:46;;;;;;;1.60;0.43;;;17.60;96.70;;;;;;4980746;28;20109;-73
2023/05/13 07:59:15;;;;;;;2.00;0.60;;;17.70;96.70;;;;;;4954348;28;20054;-73
2023/05/13 08:01:43;;;;;;;1.30;0.55;;;17.80;96.70;;;;;;4941592;28;20939;-73
2023/05/13 08:04:12;;;;;;;2.33;0.40;;;17.90;96.70;;;;;;4977176;28;20050;-74
2023/05/13 08:06:42;;;;;;;2.55;0.60;;;17.90;96.70;;;;;;4964709;28;20068;-74
2023/05/13 08:09:11;;;;;;;0.80;0.40;;;17.90;96.70;;;;;;4982237;28;20042;-74
2023/05/13 08:11:39;;;;;;;2.80;0.57;;;17.90;96.70;;;;;;4945067;28;20954;-73
2023/05/13 08:14:08;;;;;;;2.47;0.50;;;18.00;96.70;;;;;;4971677;28;20054;-74
2023/05/13 08:16:36;;;;;;;0.55;0.32;;;18.00;96.70;;;;;;4939838;28;20520;-74
2023/05/13 08:19:04;;;;;;;2.35;0.65;;;18.10;96.70;;;;;;4972911;28;20042;-74
2023/05/13 08:21:33;;;;;;;2.92;1.00;;;18.20;96.70;;;;;;4937400;28;20145;-73
2023/05/13 08:24:03;;;;;;;1.73;0.77;;;18.30;96.70;;;;;;4948676;28;20061;-73
2023/05/13 08:26:31;;;;;;;2.58;0.95;;;18.40;96.70;;;;;;4981928;28;20075;-74
2023/05/13 08:29:00;;;;;;;1.95;0.75;;;18.50;96.70;;;;;;4954258;28;20458;-74
2023/05/13 08:31:28;;;;;;;2.08;1.17;;;18.70;96.70;;;;;;4964593;28;20098;-75
2023/05/13 08:33:56;;;;;;;1.67;0.68;;;18.80;96.70;;;;;;4953233;28;20705;-74
2023/05/13 08:36:25;;;;;;;1.48;0.70;;;18.90;96.70;;;;;;4966235;28;20128;-74
2023/05/13 08:38:53;;;;;;;1.55;0.80;;;19.00;96.70;;;;;;4949692;28;20580;-73
2023/05/13 08:41:22;;;;;;;2.88;0.90;;;19.00;96.70;;;;;;4964291;28;20126;-72
2023/05/13 08:43:53;;;;;;;2.50;0.82;;;19.10;96.70;;;;;;4964312;28;20064;-73
2023/05/13 08:46:26;;;;;;;2.03;0.70;;;19.30;96.70;;;;;;4922432;29;20051;-72
2023/05/13 08:48:55;;;;;;;2.33;1.02;;;19.40;96.70;;;;;;4971013;28;20085;-72
2023/05/13 08:51:23;;;;;;;1.73;0.60;;;19.60;96.70;;;;;;4946163;28;20038;-73
2023/05/13 08:53:52;;;;;;;2.15;0.68;;;19.60;96.70;;;;;;4957330;28;20054;-74
2023/05/13 08:56:24;;;;;;;2.10;0.90;;;19.70;96.70;;;;;;4952681;28;20097;-74
2023/05/13 08:58:52;;;;;;;2.28;0.85;;;19.90;96.70;;;;;;4955501;28;20061;-73
2023/05/13 09:01:21;;;;;;;0.77;0.52;;;19.90;96.70;;;;;;4966282;28;20066;-75
2023/05/13 09:03:55;;;;;;;2.55;0.50;;;19.90;96.70;;;;;;4962430;28;20059;-74
2023/05/13 09:06:23;;;;;;;1.27;0.73;;;20.00;96.70;;;;;;4964108;28;20047;-72
2023/05/13 09:08:52;;;;;;;1.00;0.55;;;20.10;96.70;;;;;;4946490;28;20050;-73
2023/05/13 09:11:22;;;;;;;1.05;0.45;;;20.10;96.70;;;;;;4962545;28;20134;-73
2023/05/13 09:13:57;;;;;;;2.42;0.70;;;20.20;96.70;;;;;;4964260;28;20105;-74
2023/05/13 09:16:27;;;;;;;1.10;0.30;;;20.40;96.70;;;;;;4963700;28;20094;-74
2023/05/13 09:18:57;;;;;;;2.38;0.45;;;20.40;96.70;;;;;;4967700;28;20130;-74
2023/05/13 09:21:28;;;;;;;2.75;0.60;;;20.50;96.70;;;;;;4976556;28;20058;-74
2023/05/13 09:24:06;;;;;;;1.15;0.40;;;20.50;96.70;;;;;;4966136;28;20767;-72
2023/05/13 09:26:40;;;;;;;1.35;0.75;;;20.50;96.70;;;;;;4950170;28;20051;-73
2023/05/13 09:29:20;;;;;;;0.40;0.20;;;20.50;96.70;;;;;;4934445;28;20464;-72
2023/05/13 09:31:51;;;;;;;0.82;0.45;;;20.70;96.70;;;;;;4967690;28;20093;-72
2023/05/13 09:34:25;;;;;;;1.20;0.30;;;20.70;96.70;;;;;;4975508;28;20060;-72
2023/05/13 09:36:59;;;;;;;1.48;0.20;;;20.90;96.70;;;;;;4941807;28;20059;-72
2023/05/13 09:39:27;;;;;;;1.50;0.40;;;21.00;96.70;;;;;;4953889;28;20046;-73
2023/05/13 09:41:59;;;;;;;1.40;0.70;;;21.00;96.70;;;;;;4983717;28;20520;-73
2023/05/13 09:44:30;;;;;;;0.88;0.20;;;21.10;96.70;;;;;;4950429;28;20054;-73
2023/05/13 09:47:01;;;;;;;1.90;0.45;;;21.10;96.70;;;;;;4966892;28;20074;-73
2023/05/13 09:49:30;;;;;;;1.45;0.75;;;21.20;96.70;;;;;;4976003;28;20042;-72
2023/05/13 09:51:58;;;;;;;5.15;0.60;;;21.30;96.70;;;;;;4962646;28;20050;-73
2023/05/13 09:54:34;;;;;;;1.13;0.32;;;21.20;96.70;;;;;;4943213;28;20428;-73
2023/05/13 09:57:04;;;;;;;1.48;0.60;;;21.10;96.70;;;;;;4966395;28;20058;-73
2023/05/13 09:59:32;;;;;;;2.95;0.50;;;21.10;96.70;;;;;;4968682;28;20133;-73
2023/05/13 10:02:03;;;;;;;1.73;0.50;;;21.10;96.70;;;;;;4976816;28;20050;-73
2023/05/13 10:04:31;;;;;;;1.25;0.40;;;21.30;96.70;;;;;;4954120;28;20050;-72
2023/05/13 10:07:02;;;;;;;2.17;0.77;;;21.60;96.70;;;;;;4968906;28;20872;-73
2023/05/13 10:09:35;;;;;;;3.28;0.60;;;21.80;96.70;;;;;;4949306;28;20500;-73
2023/05/13 10:12:07;;;;;;;1.75;0.80;;;21.90;96.70;;;;;;4967027;28;20046;-72
2023/05/13 10:14:36;;;;;;;5.05;1.25;;;22.00;96.70;;;;;;4971417;28;20046;-73
2023/05/13 10:17:05;;;;;;;2.42;0.40;;;22.20;96.70;;;;;;4961486;28;20043;-72
2023/05/13 10:19:34;;;;;;;2.65;0.43;;;22.10;96.70;;;;;;4974247;28;20385;-73
2023/05/13 10:22:02;;;;;;;2.17;0.65;;;21.90;96.70;;;;;;4982732;28;20121;-73
2023/05/13 10:24:31;;;;;;;1.55;0.30;;;22.20;96.70;;;;;;4951183;28;20050;-73
2023/05/13 10:27:01;;;;;;;2.10;0.30;;;22.30;96.70;;;;;;4972780;28;20121;-72
2023/05/13 10:29:30;;;;;;;1.40;0.63;;;22.50;96.70;;;;;;4966683;28;20074;-72
2023/05/13 10:31:59;;;;;;;0.98;0.30;;;22.40;96.70;;;;;;4962187;28;20050;-73
2023/05/13 10:34:30;;;;;;;2.50;0.55;;;22.40;96.70;;;;;;4980848;28;20046;-72
2023/05/13 10:37:10;;;;;;;2.25;0.32;;;22.10;96.70;;;;;;4965802;28;20061;-72
2023/05/13 10:40:01;;;;;;;1.27;0.30;;;21.90;96.70;;;;;;4969700;28;20507;-72
2023/05/13 10:42:52;;;;;;;1.05;0.40;;;21.90;96.70;;;;;;4964326;28;20082;-72
2023/05/13 10:45:26;;;;;;;1.63;0.63;;;22.10;96.70;;;;;;4962056;28;20053;-74
2023/05/13 10:47:55;;;;;;;1.38;0.35;;;22.10;96.70;;;;;;4966025;28;20047;-75
2023/05/13 10:50:24;;;;;;;1.13;0.30;;;22.30;96.70;;;;;;4956437;28;20469;-75
2023/05/13 10:52:56;;;;;;;0.90;0.30;;;22.50;96.70;;;;;;4983722;28;20866;-74
2023/05/13 10:55:27;;;;;;;0.77;0.20;;;22.50;96.70;;;;;;4966096;28;20160;-76
2023/05/13 10:58:08;;;;;;;3.90;0.50;;;22.40;96.70;;;;;;4936014;28;20046;-74
2023/05/13 11:00:38;;;;;;;2.20;0.32;;;22.50;96.70;;;;;;4973514;28;20050;-74
2023/05/13 11:03:27;;;;;;;1.25;0.35;;;22.40;96.70;;;;;;4948459;28;20145;-73
2023/05/13 11:06:12;;;;;;;0.75;0.30;;;22.30;96.70;;;;;;4957277;28;20049;-72
2023/05/13 11:08:42;;;;;;;1.98;0.40;;;22.30;96.70;;;;;;4954393;28;20047;-72
2023/05/13 11:11:29;;;;;;;1.48;0.43;;;22.30;96.70;;;;;;4975344;28;20042;-72
2023/05/13 11:14:14;;;;;;;1.55;0.32;;;22.30;96.70;;;;;;4965532;28;20057;-73
2023/05/13 11:16:53;;;;;;;0.47;0.20;;;22.20;96.70;;;;;;4958023;28;20078;-73
2023/05/13 11:19:24;;;;;;;3.28;0.55;;;22.20;96.70;;;;;;4961955;28;20046;-72
2023/05/13 11:21:55;;;;;;;1.63;0.47;;;22.30;96.70;;;;;;4958960;28;20508;-72
2023/05/13 11:24:23;;;;;;;1.15;0.25;;;22.30;96.70;;;;;;4972729;28;20047;-71
2023/05/13 11:26:55;;;;;;;0.73;0.28;;;22.40;96.70;;;;;;4955983;28;20496;-73
2023/05/13 11:29:37;;;;;;;1.25;0.35;;;22.40;96.70;;;;;;4937820;28;20066;-73
2023/05/13 11:32:07;;;;;;;0.98;0.30;;;22.50;96.70;;;;;;4963308;28;20054;-73
2023/05/13 11:34:35;;;;;;;2.28;0.50;;;22.60;96.70;;;;;;4968995;28;20035;-73
2023/05/13 11:37:07;;;;;;;1.42;0.35;;;22.60;96.70;;;;;;4967176;28;20053;-73
2023/05/13 11:39:39;;;;;;;1.02;0.10;;;22.70;96.70;;;;;;4955856;28;20046;-73
2023/05/13 11:42:08;;;;;;;1.35;0.55;;;22.80;96.70;;;;;;4951468;28;20046;-73
2023/05/13 11:44:44;;;;;;;0.70;0.40;;;22.60;96.70;;;;;;4948180;28;20492;-73
2023/05/13 11:47:14;;;;;;;2.33;0.40;;;22.30;96.70;;;;;;4942394;28;20042;-73
2023/05/13 11:49:43;;;;;;;1.35;0.30;;;22.30;96.70;;;;;;4972712;28;20042;-73
2023/05/13 11:52:13;;;;;;;1.92;0.65;;;22.30;96.70;;;;;;4981112;28;20039;-73
2023/05/13 11:54:43;;;;;;;1.98;0.50;;;22.40;96.70;;;;;;4964629;28;20058;-72
2023/05/13 11:57:22;;;;;;;1.50;0.60;;;22.60;96.70;;;;;;4974567;28;20042;-72
2023/05/13 11:59:52;;;;;;;1.65;0.50;;;22.60;96.70;;;;;;4958300;28;20049;-72
2023/05/13 12:02:23;;;;;;;1.45;0.40;;;22.60;96.70;;;;;;4963639;28;20134;-71
2023/05/13 12:04:52;;;;;;;1.75;0.40;;;22.50;96.70;;;;;;4965230;28;20432;-72
2023/05/13 12:07:21;;;;;;;1.00;0.40;;;22.40;96.70;;;;;;4965206;28;20070;-72
2023/05/13 12:09:50;;;;;;;1.23;0.40;;;22.60;96.70;;;;;;4969339;28;20137;-73
2023/05/13 12:12:19;;;;;;;2.72;0.60;;;22.40;96.70;;;;;;4956409;28;20042;-73
2023/05/13 12:14:49;;;;;;;1.02;0.32;;;22.40;96.70;;;;;;4962318;28;20054;-72
2023/05/13 12:17:17;;;;;;;1.88;0.50;;;22.40;96.70;;;;;;4956626;28;20636;-73
2023/05/13 12:20:07;;;;;;;1.75;0.50;;;22.50;96.70;;;;;;4964339;28;20042;-72
2023/05/13 12:22:37;;;;;;;1.05;0.40;;;22.40;96.70;;;;;;4928012;29;20111;-72
2023/05/13 12:25:37;;;;;;;1.08;0.30;;;22.30;96.70;;;;;;4940064;28;20089;-72
2023/05/13 12:28:15;;;;;;;0.60;0.30;;;22.40;96.70;;;;;;4926421;29;20039;-72
2023/05/13 12:30:52;;;;;;;0.65;0.52;;;22.50;96.70;;;;;;4932771;29;20078;-72
2023/05/13 12:33:21;;;;;;;;;;;22.60;96.70;;;;;;4943121;29;20055;-72
2023/05/13 12:35:52;;;;;;;1.98;0.40;;;22.70;96.70;;;;;;4929124;29;20026;-71
2023/05/13 12:38:22;;;;;;;0.40;0.30;;;22.70;96.70;;;;;;4940029;28;20526;-71
2023/05/13 12:40:51;;;;;;;2.50;0.30;;;22.70;96.70;;;;;;4925524;29;20052;-72
2023/05/13 12:43:19;;;;;;;0.82;0.40;;;22.60;96.70;;;;;;4905138;29;20051;-72
2023/05/13 12:45:55;;;;;;;1.48;0.40;;;22.60;96.70;;;;;;4946845;28;20075;-72
2023/05/13 12:48:24;;;;;;;0.93;0.35;;;22.60;96.70;;;;;;4925929;29;20055;-72
2023/05/13 12:50:55;;;;;;;0.90;0.30;;;22.70;96.70;;;;;;4926321;29;20103;-72
2023/05/13 12:53:23;;;;;;;1.92;0.47;;;22.70;96.70;;;;;;4943025;28;20048;-72
2023/05/13 12:55:51;;;;;;;1.52;0.30;;;22.70;96.70;;;;;;4930215;28;20039;-72
2023/05/13 12:58:19;;;;;;;2.78;0.60;;;22.70;96.70;;;;;;4929823;29;20051;-72
2023/05/13 13:00:47;;;;;;;0.90;0.30;;;22.70;96.70;;;;;;4935184;29;20064;-72
2023/05/13 13:03:15;;;;;;;1.63;0.20;;;22.70;96.70;;;;;;4935967;29;20053;-71
2023/05/13 13:05:43;;;;;;;0.82;0.20;;;22.70;96.70;;;;;;4930431;29;20059;-72
2023/05/13 13:08:13;;;;;;;3.67;0.50;;;22.60;96.70;;;;;;4927279;29;20702;-72
2023/05/13 13:10:41;;;;;;;0.73;0.40;;;22.60;96.70;;;;;;4940859;29;20509;-72
2023/05/13 13:13:09;;;;;;;0.82;0.30;;;22.50;96.70;;;;;;4946043;29;20718;-72
2023/05/13 13:15:38;;;;;;;1.38;0.38;;;22.40;96.70;;;;;;4936793;29;20055;-72
2023/05/13 13:18:06;;;;;;;0.80;0.30;;;22.40;96.70;;;;;;4944548;28;20044;-71
2023/05/13 13:20:34;;;;;;;2.35;0.30;;;22.30;96.70;;;;;;4943858;28;20085;-71
2023/05/13 13:23:02;;;;;;;3.17;0.40;;;22.20;96.70;;;;;;4959705;28;20568;-71
2023/05/13 13:25:32;;;;;;;2.35;0.38;;;22.20;96.70;;;;;;4957922;28;20516;-72
2023/05/13 13:28:00;;;;;;;2.40;0.70;;;22.10;96.70;;;;;;4963616;28;20042;-72
2023/05/13 13:30:28;;;;;;;3.22;1.10;;;22.00;96.70;;;;;;4962112;28;20542;-71
2023/05/13 13:32:56;;;;;;;3.97;1.10;;;21.90;96.70;;;;;;4943084;28;20064;-71
2023/05/13 13:35:24;;;;;;;2.85;0.80;;;21.70;96.70;;;;;;4984509;28;20481;-71
2023/05/13 13:37:53;;;;;;;1.70;0.60;;;21.60;96.70;;;;;;4979592;28;20047;-71
2023/05/13 13:40:21;;;;;;;1.27;0.50;;;21.50;96.70;;;;;;4972253;28;20046;-71
2023/05/13 13:42:51;;;;;;;2.47;0.50;;;21.50;96.70;;;;;;4940658;29;20134;-72
2023/05/13 13:45:22;;;;;;;1.88;0.60;;;21.20;96.70;;;;;;4979641;28;20092;-72
2023/05/13 13:47:51;;;;;;;2.45;0.40;;;21.00;96.70;;;;;;4966018;28;20050;-73